sensor_id;sensor_type;location;lat;lon;timestamp;pressure;altitude;pressure_sealevel;temperature;humidity
29247;BME280;16272;48.188;9.964;2024-02-28T00:01:22;95605.59;;;6.89;77.28
29247;BME280;16272;48.188;9.964;2024-02-28T00:03:47;95613.53;;;6.99;77.07
29247;BME280;16272;48.188;9.964;2024-02-28T00:06:12;95604.06;;;6.96;76.57
29247;BME280;16272;48.188;9.964;2024-02-28T00:08:38;95609.72;;;6.82;76.86
29247;BME280;16272;48.188;9.964;2024-02-28T00:11:03;95608.94;;;7.01;77.25
29247;BME280;16272;48.188;9.964;2024-02-28T00:13:28;95601.72;;;7.03;77.00
29247;BME280;16272;48.188;9.964;2024-02-28T00:15:54;95605.47;;;7.01;76.36
29247;BME280;16272;48.188;9.964;2024-02-28T00:18:19;95608.16;;;7.10;76.15
29247;BME280;16272;48.188;9.964;2024-02-28T00:20:45;95612.28;;;7.03;76.20
29247;BME280;16272;48.188;9.964;2024-02-28T00:23:10;95610.22;;;6.97;76.91
29247;BME280;16272;48.188;9.964;2024-02-28T00:25:35;95618.25;;;6.95;77.03
29247;BME280;16272;48.188;9.964;2024-02-28T00:28:01;95620.03;;;6.95;76.97
29247;BME280;16272;48.188;9.964;2024-02-28T00:30:26;95618.16;;;7.07;76.35
29247;BME280;16272;48.188;9.964;2024-02-28T00:32:53;95620.34;;;7.02;76.65
29247;BME280;16272;48.188;9.964;2024-02-28T00:35:18;95631.41;;;6.86;77.27
29247;BME280;16272;48.188;9.964;2024-02-28T00:37:44;95624.19;;;6.88;77.18
29247;BME280;16272;48.188;9.964;2024-02-28T00:40:09;95611.78;;;6.78;77.76
29247;BME280;16272;48.188;9.964;2024-02-28T00:42:35;95619.75;;;6.88;77.25
29247;BME280;16272;48.188;9.964;2024-02-28T00:45:00;95619.66;;;6.69;78.09
29247;BME280;16272;48.188;9.964;2024-02-28T00:47:26;95619.44;;;6.81;77.44
29247;BME280;16272;48.188;9.964;2024-02-28T00:49:51;95617.91;;;6.79;78.11
29247;BME280;16272;48.188;9.964;2024-02-28T00:52:16;95623.63;;;6.84;77.25
29247;BME280;16272;48.188;9.964;2024-02-28T00:54:42;95624.47;;;6.85;77.20
29247;BME280;16272;48.188;9.964;2024-02-28T00:57:07;95620.69;;;6.77;77.64
29247;BME280;16272;48.188;9.964;2024-02-28T00:59:32;95633.81;;;6.89;76.91
29247;BME280;16272;48.188;9.964;2024-02-28T01:01:58;95631.94;;;6.79;77.40
29247;BME280;16272;48.188;9.964;2024-02-28T01:04:23;95639.16;;;6.77;77.39
29247;BME280;16272;48.188;9.964;2024-02-28T01:06:48;95652.13;;;6.59;79.20
29247;BME280;16272;48.188;9.964;2024-02-28T01:09:13;95646.06;;;6.69;78.86
29247;BME280;16272;48.188;9.964;2024-02-28T01:11:39;95644.28;;;6.69;78.44
29247;BME280;16272;48.188;9.964;2024-02-28T01:14:04;95647.72;;;6.70;78.09
29247;BME280;16272;48.188;9.964;2024-02-28T01:16:30;95650.00;;;6.74;77.80
29247;BME280;16272;48.188;9.964;2024-02-28T01:18:55;95654.16;;;6.77;77.33
29247;BME280;16272;48.188;9.964;2024-02-28T01:21:21;95656.13;;;6.85;77.15
29247;BME280;16272;48.188;9.964;2024-02-28T01:23:46;95664.41;;;6.70;78.28
29247;BME280;16272;48.188;9.964;2024-02-28T01:26:11;95669.84;;;6.78;77.33
29247;BME280;16272;48.188;9.964;2024-02-28T01:28:37;95672.22;;;6.81;77.18
29247;BME280;16272;48.188;9.964;2024-02-28T01:31:02;95669.84;;;6.78;77.83
29247;BME280;16272;48.188;9.964;2024-02-28T01:33:28;95674.13;;;6.70;77.35
29247;BME280;16272;48.188;9.964;2024-02-28T01:35:53;95676.91;;;6.68;78.36
29247;BME280;16272;48.188;9.964;2024-02-28T01:38:18;95688.03;;;6.72;77.84
29247;BME280;16272;48.188;9.964;2024-02-28T01:40:47;95682.38;;;6.55;79.01
29247;BME280;16272;48.188;9.964;2024-02-28T01:43:12;95686.63;;;6.68;77.99
29247;BME280;16272;48.188;9.964;2024-02-28T01:45:38;95685.84;;;6.56;78.37
29247;BME280;16272;48.188;9.964;2024-02-28T01:48:04;95685.44;;;6.60;77.87
29247;BME280;16272;48.188;9.964;2024-02-28T01:50:31;95690.22;;;6.67;78.81
29247;BME280;16272;48.188;9.964;2024-02-28T01:52:57;95694.16;;;6.30;80.00
29247;BME280;16272;48.188;9.964;2024-02-28T01:55:23;95698.06;;;6.36;80.28
29247;BME280;16272;48.188;9.964;2024-02-28T01:57:48;95705.91;;;6.26;81.00
29247;BME280;16272;48.188;9.964;2024-02-28T02:00:15;95701.97;;;6.53;79.38
29247;BME280;16272;48.188;9.964;2024-02-28T02:02:41;95700.06;;;6.43;79.59
29247;BME280;16272;48.188;9.964;2024-02-28T02:05:07;95705.22;;;6.45;79.06
29247;BME280;16272;48.188;9.964;2024-02-28T02:07:33;95707.94;;;6.55;78.49
29247;BME280;16272;48.188;9.964;2024-02-28T02:10:00;95712.22;;;6.56;78.01
29247;BME280;16272;48.188;9.964;2024-02-28T02:12:25;95703.66;;;6.42;78.85
29247;BME280;16272;48.188;9.964;2024-02-28T02:14:51;95705.28;;;6.55;78.22
29247;BME280;16272;48.188;9.964;2024-02-28T02:17:16;95712.03;;;6.48;78.56
29247;BME280;16272;48.188;9.964;2024-02-28T02:19:41;95699.50;;;6.19;79.24
29247;BME280;16272;48.188;9.964;2024-02-28T02:22:08;95704.84;;;6.50;78.36
29247;BME280;16272;48.188;9.964;2024-02-28T02:24:34;95699.03;;;6.56;78.06
29247;BME280;16272;48.188;9.964;2024-02-28T02:26:59;95705.09;;;6.47;78.22
29247;BME280;16272;48.188;9.964;2024-02-28T02:29:25;95702.91;;;6.52;78.65
29247;BME280;16272;48.188;9.964;2024-02-28T02:31:50;95710.56;;;6.34;79.84
29247;BME280;16272;48.188;9.964;2024-02-28T02:34:15;95702.56;;;6.24;79.99
29247;BME280;16272;48.188;9.964;2024-02-28T02:36:41;95714.63;;;6.38;78.71
29247;BME280;16272;48.188;9.964;2024-02-28T02:39:06;95710.88;;;6.40;79.28
29247;BME280;16272;48.188;9.964;2024-02-28T02:41:33;95700.34;;;6.40;78.69
29247;BME280;16272;48.188;9.964;2024-02-28T02:43:58;95710.56;;;6.34;79.13
29247;BME280;16272;48.188;9.964;2024-02-28T02:46:24;95702.72;;;6.43;78.74
29247;BME280;16272;48.188;9.964;2024-02-28T02:48:49;95715.53;;;6.48;78.40
29247;BME280;16272;48.188;9.964;2024-02-28T02:51:14;95716.22;;;6.50;78.33
29247;BME280;16272;48.188;9.964;2024-02-28T02:53:40;95710.88;;;6.40;78.86
29247;BME280;16272;48.188;9.964;2024-02-28T02:56:05;95718.09;;;6.38;78.56
29247;BME280;16272;48.188;9.964;2024-02-28T02:58:31;95720.72;;;6.38;78.88
29247;BME280;16272;48.188;9.964;2024-02-28T03:00:56;95721.75;;;6.47;78.83
29247;BME280;16272;48.188;9.964;2024-02-28T03:03:21;95716.41;;;6.37;78.58
29247;BME280;16272;48.188;9.964;2024-02-28T03:05:47;95724.53;;;6.46;78.66
29247;BME280;16272;48.188;9.964;2024-02-28T03:08:12;95718.16;;;6.48;78.33
29247;BME280;16272;48.188;9.964;2024-02-28T03:10:37;95727.47;;;6.31;78.54
29247;BME280;16272;48.188;9.964;2024-02-28T03:13:03;95722.19;;;6.31;79.21
29247;BME280;16272;48.188;9.964;2024-02-28T03:15:29;95725.81;;;6.30;78.79
29247;BME280;16272;48.188;9.964;2024-02-28T03:17:54;95729.66;;;6.26;78.95
29247;BME280;16272;48.188;9.964;2024-02-28T03:20:20;95730.38;;;6.28;79.30
29247;BME280;16272;48.188;9.964;2024-02-28T03:22:45;95728.75;;;6.16;79.82
29247;BME280;16272;48.188;9.964;2024-02-28T03:25:10;95733.06;;;6.17;79.79
29247;BME280;16272;48.188;9.964;2024-02-28T03:27:35;95726.72;;;6.08;79.70
29247;BME280;16272;48.188;9.964;2024-02-28T03:30:01;95728.41;;;6.09;79.79
29247;BME280;16272;48.188;9.964;2024-02-28T03:32:26;95735.88;;;6.04;80.15
29247;BME280;16272;48.188;9.964;2024-02-28T03:34:52;95743.06;;;6.02;80.50
29247;BME280;16272;48.188;9.964;2024-02-28T03:37:17;95748.69;;;6.09;80.17
29247;BME280;16272;48.188;9.964;2024-02-28T03:39:42;95747.66;;;6.21;79.78
29247;BME280;16272;48.188;9.964;2024-02-28T03:42:08;95746.53;;;6.02;80.12
29247;BME280;16272;48.188;9.964;2024-02-28T03:44:33;95748.22;;;6.03;79.72
29247;BME280;16272;48.188;9.964;2024-02-28T03:46:58;95753.09;;;6.08;79.75
29247;BME280;16272;48.188;9.964;2024-02-28T03:49:24;95752.50;;;6.04;79.51
29247;BME280;16272;48.188;9.964;2024-02-28T03:51:49;95741.97;;;6.04;79.85
29247;BME280;16272;48.188;9.964;2024-02-28T03:54:14;95749.88;;;6.04;80.23
29247;BME280;16272;48.188;9.964;2024-02-28T03:56:39;95754.19;;;6.05;80.08
29247;BME280;16272;48.188;9.964;2024-02-28T03:59:05;95762.56;;;6.11;79.38
29247;BME280;16272;48.188;9.964;2024-02-28T04:01:30;95761.75;;;6.10;79.38
29247;BME280;16272;48.188;9.964;2024-02-28T04:03:55;95757.72;;;6.27;78.56
29247;BME280;16272;48.188;9.964;2024-02-28T04:06:21;95766.31;;;6.29;78.92
29247;BME280;16272;48.188;9.964;2024-02-28T04:08:46;95757.13;;;6.23;78.49
29247;BME280;16272;48.188;9.964;2024-02-28T04:11:11;95761.06;;;6.29;78.25
29247;BME280;16272;48.188;9.964;2024-02-28T04:13:37;95757.63;;;6.17;79.22
29247;BME280;16272;48.188;9.964;2024-02-28T04:16:03;95764.03;;;6.03;79.49
29247;BME280;16272;48.188;9.964;2024-02-28T04:18:28;95771.72;;;6.28;78.35
29247;BME280;16272;48.188;9.964;2024-02-28T04:20:54;95782.66;;;6.23;78.31
29247;BME280;16272;48.188;9.964;2024-02-28T04:23:20;95774.53;;;6.15;78.81
29247;BME280;16272;48.188;9.964;2024-02-28T04:25:45;95768.09;;;6.07;79.86
29247;BME280;16272;48.188;9.964;2024-02-28T04:28:10;95766.63;;;6.15;79.10
29247;BME280;16272;48.188;9.964;2024-02-28T04:30:36;95769.25;;;6.15;79.36
29247;BME280;16272;48.188;9.964;2024-02-28T04:33:01;95768.53;;;6.13;79.41
29247;BME280;16272;48.188;9.964;2024-02-28T04:35:26;95776.47;;;5.90;80.78
29247;BME280;16272;48.188;9.964;2024-02-28T04:37:52;95770.75;;;5.96;80.21
29247;BME280;16272;48.188;9.964;2024-02-28T04:40:17;95763.63;;;6.08;79.75
29247;BME280;16272;48.188;9.964;2024-02-28T04:42:42;95781.34;;;6.17;79.54
29247;BME280;16272;48.188;9.964;2024-02-28T04:45:10;95786.75;;;6.16;80.17
29247;BME280;16272;48.188;9.964;2024-02-28T04:47:36;95796.03;;;5.87;80.88
29247;BME280;16272;48.188;9.964;2024-02-28T04:50:02;95801.53;;;5.96;81.81
29247;BME280;16272;48.188;9.964;2024-02-28T04:52:30;95793.41;;;5.99;80.78
29247;BME280;16272;48.188;9.964;2024-02-28T04:54:55;95809.53;;;6.17;79.94
29247;BME280;16272;48.188;9.964;2024-02-28T04:57:21;95804.28;;;6.05;79.95
29247;BME280;16272;48.188;9.964;2024-02-28T04:59:46;95807.97;;;6.14;79.81
29247;BME280;16272;48.188;9.964;2024-02-28T05:02:12;95810.50;;;6.16;80.21
29247;BME280;16272;48.188;9.964;2024-02-28T05:04:37;95810.84;;;6.11;80.62
29247;BME280;16272;48.188;9.964;2024-02-28T05:07:02;95821.19;;;6.03;80.18
29247;BME280;16272;48.188;9.964;2024-02-28T05:09:28;95817.22;;;6.09;80.64
29247;BME280;16272;48.188;9.964;2024-02-28T05:11:53;95818.09;;;5.98;80.16
29247;BME280;16272;48.188;9.964;2024-02-28T05:14:19;95817.34;;;6.18;79.96
29247;BME280;16272;48.188;9.964;2024-02-28T05:16:44;95828.25;;;5.80;81.44
29247;BME280;16272;48.188;9.964;2024-02-28T05:19:09;95826.69;;;6.00;81.06
29247;BME280;16272;48.188;9.964;2024-02-28T05:21:42;95829.69;;;6.06;80.49
29247;BME280;16272;48.188;9.964;2024-02-28T05:24:08;95826.81;;;5.98;80.62
29247;BME280;16272;48.188;9.964;2024-02-28T05:26:36;95831.25;;;5.98;80.84
29247;BME280;16272;48.188;9.964;2024-02-28T05:29:03;95835.72;;;5.97;80.87
29247;BME280;16272;48.188;9.964;2024-02-28T05:31:29;95847.66;;;6.01;80.20
29247;BME280;16272;48.188;9.964;2024-02-28T05:33:57;95841.19;;;6.17;79.73
29247;BME280;16272;48.188;9.964;2024-02-28T05:36:23;95850.75;;;6.18;80.45
29247;BME280;16272;48.188;9.964;2024-02-28T05:38:49;95853.53;;;6.05;79.98
29247;BME280;16272;48.188;9.964;2024-02-28T05:41:16;95861.31;;;6.06;80.59
29247;BME280;16272;48.188;9.964;2024-02-28T05:43:42;95856.06;;;5.95;81.36
29247;BME280;16272;48.188;9.964;2024-02-28T05:46:08;95870.09;;;6.07;79.94
29247;BME280;16272;48.188;9.964;2024-02-28T05:48:33;95864.91;;;5.94;80.66
29247;BME280;16272;48.188;9.964;2024-02-28T05:51:00;95877.88;;;5.97;80.54
29247;BME280;16272;48.188;9.964;2024-02-28T05:53:26;95881.09;;;5.89;80.67
29247;BME280;16272;48.188;9.964;2024-02-28T05:55:52;95878.81;;;6.07;79.72
29247;BME280;16272;48.188;9.964;2024-02-28T05:58:22;95882.41;;;6.06;79.66
29247;BME280;16272;48.188;9.964;2024-02-28T06:00:48;95882.91;;;5.89;80.49
29247;BME280;16272;48.188;9.964;2024-02-28T06:03:13;95891.50;;;5.91;80.24
29247;BME280;16272;48.188;9.964;2024-02-28T06:05:39;95890.22;;;5.85;80.52
29247;BME280;16272;48.188;9.964;2024-02-28T06:08:04;95892.09;;;5.83;80.95
29247;BME280;16272;48.188;9.964;2024-02-28T06:10:30;95900.59;;;5.87;80.46
29247;BME280;16272;48.188;9.964;2024-02-28T06:12:55;95899.31;;;5.81;81.03
29247;BME280;16272;48.188;9.964;2024-02-28T06:15:20;95909.97;;;5.91;80.51
29247;BME280;16272;48.188;9.964;2024-02-28T06:17:45;95908.28;;;5.90;80.02
29247;BME280;16272;48.188;9.964;2024-02-28T06:20:11;95910.91;;;5.79;80.92
29247;BME280;16272;48.188;9.964;2024-02-28T06:22:36;95919.56;;;5.81;81.02
29247;BME280;16272;48.188;9.964;2024-02-28T06:25:01;95920.50;;;5.80;80.67
29247;BME280;16272;48.188;9.964;2024-02-28T06:27:27;95926.00;;;5.88;80.38
29247;BME280;16272;48.188;9.964;2024-02-28T06:29:52;95919.06;;;5.87;80.64
29247;BME280;16272;48.188;9.964;2024-02-28T06:32:18;95925.44;;;5.96;79.94
29247;BME280;16272;48.188;9.964;2024-02-28T06:34:43;95931.03;;;5.68;81.27
29247;BME280;16272;48.188;9.964;2024-02-28T06:37:08;95937.16;;;5.69;81.35
29247;BME280;16272;48.188;9.964;2024-02-28T06:39:33;95944.22;;;5.80;81.30
29247;BME280;16272;48.188;9.964;2024-02-28T06:41:59;95939.66;;;5.93;80.97
29247;BME280;16272;48.188;9.964;2024-02-28T06:44:24;95946.63;;;5.71;81.19
29247;BME280;16272;48.188;9.964;2024-02-28T06:46:49;95941.84;;;5.88;81.13
29247;BME280;16272;48.188;9.964;2024-02-28T06:49:15;95947.38;;;5.96;80.36
29247;BME280;16272;48.188;9.964;2024-02-28T06:51:40;95958.78;;;5.50;82.51
29247;BME280;16272;48.188;9.964;2024-02-28T06:54:05;95959.31;;;5.78;81.60
29247;BME280;16272;48.188;9.964;2024-02-28T06:56:30;95952.59;;;5.74;81.38
29247;BME280;16272;48.188;9.964;2024-02-28T06:58:56;95956.44;;;5.69;81.54
29247;BME280;16272;48.188;9.964;2024-02-28T07:01:21;95958.63;;;5.76;80.68
29247;BME280;16272;48.188;9.964;2024-02-28T07:03:47;95958.50;;;5.77;80.27
29247;BME280;16272;48.188;9.964;2024-02-28T07:06:12;95962.06;;;5.65;80.95
29247;BME280;16272;48.188;9.964;2024-02-28T07:08:37;95971.06;;;5.85;80.08
29247;BME280;16272;48.188;9.964;2024-02-28T07:11:03;95968.88;;;5.79;79.71
29247;BME280;16272;48.188;9.964;2024-02-28T07:13:29;95978.97;;;5.85;79.06
29247;BME280;16272;48.188;9.964;2024-02-28T07:15:54;95982.00;;;6.03;78.85
29247;BME280;16272;48.188;9.964;2024-02-28T07:18:20;95984.69;;;5.79;79.52
29247;BME280;16272;48.188;9.964;2024-02-28T07:20:45;95983.28;;;5.75;79.02
29247;BME280;16272;48.188;9.964;2024-02-28T07:23:11;95976.56;;;5.93;78.23
29247;BME280;16272;48.188;9.964;2024-02-28T07:25:37;95986.63;;;5.77;78.29
29247;BME280;16272;48.188;9.964;2024-02-28T07:28:02;95980.19;;;5.92;77.75
29247;BME280;16272;48.188;9.964;2024-02-28T07:30:28;95976.16;;;5.99;77.12
29247;BME280;16272;48.188;9.964;2024-02-28T07:32:54;95983.22;;;6.10;77.38
29247;BME280;16272;48.188;9.964;2024-02-28T07:35:19;95987.88;;;6.06;77.04
29247;BME280;16272;48.188;9.964;2024-02-28T07:37:46;95985.47;;;6.15;77.29
29247;BME280;16272;48.188;9.964;2024-02-28T07:40:12;95993.91;;;6.09;77.03
29247;BME280;16272;48.188;9.964;2024-02-28T07:42:38;95988.88;;;6.17;77.20
29247;BME280;16272;48.188;9.964;2024-02-28T07:45:03;95983.56;;;6.39;75.82
29247;BME280;16272;48.188;9.964;2024-02-28T07:47:29;95987.63;;;6.55;75.76
29247;BME280;16272;48.188;9.964;2024-02-28T07:49:54;95987.28;;;6.48;76.35
29247;BME280;16272;48.188;9.964;2024-02-28T07:52:19;95989.06;;;6.48;75.87
29247;BME280;16272;48.188;9.964;2024-02-28T07:54:45;95989.28;;;6.56;75.30
29247;BME280;16272;48.188;9.964;2024-02-28T07:57:10;96001.31;;;6.15;76.49
29247;BME280;16272;48.188;9.964;2024-02-28T07:59:42;96003.94;;;6.49;75.98
29247;BME280;16272;48.188;9.964;2024-02-28T08:02:08;96001.72;;;6.88;75.09
29247;BME280;16272;48.188;9.964;2024-02-28T08:04:34;95999.94;;;6.77;74.39
29247;BME280;16272;48.188;9.964;2024-02-28T08:07:00;96005.53;;;6.17;76.01
29247;BME280;16272;48.188;9.964;2024-02-28T08:09:25;96010.44;;;6.44;75.56
29247;BME280;16272;48.188;9.964;2024-02-28T08:11:50;96013.53;;;6.61;74.78
29247;BME280;16272;48.188;9.964;2024-02-28T08:14:16;96018.59;;;6.64;75.01
29247;BME280;16272;48.188;9.964;2024-02-28T08:16:41;96020.59;;;6.49;75.08
29247;BME280;16272;48.188;9.964;2024-02-28T08:19:06;96022.41;;;6.37;75.00
29247;BME280;16272;48.188;9.964;2024-02-28T08:21:31;96018.13;;;6.25;75.74
29247;BME280;16272;48.188;9.964;2024-02-28T08:23:57;96030.09;;;6.29;75.42
29247;BME280;16272;48.188;9.964;2024-02-28T08:26:23;96023.63;;;6.22;75.14
29247;BME280;16272;48.188;9.964;2024-02-28T08:28:49;96015.84;;;6.43;75.17
29247;BME280;16272;48.188;9.964;2024-02-28T08:31:15;96021.47;;;6.38;75.00
29247;BME280;16272;48.188;9.964;2024-02-28T08:33:40;96015.94;;;6.53;75.37
29247;BME280;16272;48.188;9.964;2024-02-28T08:36:06;96022.63;;;6.68;74.97
29247;BME280;16272;48.188;9.964;2024-02-28T08:38:31;96021.19;;;6.75;75.13
29247;BME280;16272;48.188;9.964;2024-02-28T08:40:57;96027.22;;;6.66;74.21
29247;BME280;16272;48.188;9.964;2024-02-28T08:43:22;96034.38;;;6.75;74.11
29247;BME280;16272;48.188;9.964;2024-02-28T08:45:47;96034.13;;;6.90;73.29
29247;BME280;16272;48.188;9.964;2024-02-28T08:48:15;96042.94;;;6.68;74.55
29247;BME280;16272;48.188;9.964;2024-02-28T08:50:40;96037.34;;;6.82;74.73
29247;BME280;16272;48.188;9.964;2024-02-28T08:53:05;96046.03;;;6.84;74.76
29247;BME280;16272;48.188;9.964;2024-02-28T08:55:31;96045.09;;;6.51;75.03
29247;BME280;16272;48.188;9.964;2024-02-28T08:57:56;96044.84;;;6.32;75.17
29247;BME280;16272;48.188;9.964;2024-02-28T09:00:21;96042.06;;;6.67;74.88
29247;BME280;16272;48.188;9.964;2024-02-28T09:02:47;96043.16;;;6.53;74.88
29247;BME280;16272;48.188;9.964;2024-02-28T09:05:12;96035.13;;;6.55;74.50
29247;BME280;16272;48.188;9.964;2024-02-28T09:07:37;96039.56;;;6.32;75.72
29247;BME280;16272;48.188;9.964;2024-02-28T09:10:04;96042.56;;;6.72;74.91
29247;BME280;16272;48.188;9.964;2024-02-28T09:12:30;96048.09;;;6.47;75.32
29247;BME280;16272;48.188;9.964;2024-02-28T09:14:55;96053.72;;;6.42;75.94
29247;BME280;16272;48.188;9.964;2024-02-28T09:17:22;96054.78;;;6.85;73.88
29247;BME280;16272;48.188;9.964;2024-02-28T09:19:48;96053.81;;;6.86;73.50
29247;BME280;16272;48.188;9.964;2024-02-28T09:22:13;96049.22;;;6.99;73.60
29247;BME280;16272;48.188;9.964;2024-02-28T09:24:40;96059.13;;;6.74;74.03
29247;BME280;16272;48.188;9.964;2024-02-28T09:27:06;96049.19;;;7.22;72.82
29247;BME280;16272;48.188;9.964;2024-02-28T09:29:31;96050.19;;;7.42;71.66
29247;BME280;16272;48.188;9.964;2024-02-28T09:31:56;96045.72;;;7.75;71.61
29247;BME280;16272;48.188;9.964;2024-02-28T09:34:22;96046.25;;;7.57;71.24
29247;BME280;16272;48.188;9.964;2024-02-28T09:36:47;96056.19;;;7.97;71.87
29247;BME280;16272;48.188;9.964;2024-02-28T09:39:13;96050.69;;;7.68;71.33
29247;BME280;16272;48.188;9.964;2024-02-28T09:41:40;96051.56;;;7.25;72.07
29247;BME280;16272;48.188;9.964;2024-02-28T09:44:06;96056.44;;;7.41;71.40
29247;BME280;16272;48.188;9.964;2024-02-28T09:46:33;96057.50;;;8.34;71.63
29247;BME280;16272;48.188;9.964;2024-02-28T09:49:05;96047.56;;;8.47;69.05
29247;BME280;16272;48.188;9.964;2024-02-28T09:51:34;96047.75;;;9.06;68.51
29247;BME280;16272;48.188;9.964;2024-02-28T09:54:01;96043.25;;;8.96;69.44
29247;BME280;16272;48.188;9.964;2024-02-28T09:56:27;96043.47;;;9.24;66.82
29247;BME280;16272;48.188;9.964;2024-02-28T09:58:54;96058.19;;;8.36;66.23
29247;BME280;16272;48.188;9.964;2024-02-28T10:01:21;96056.13;;;8.39;69.05
29247;BME280;16272;48.188;9.964;2024-02-28T10:03:48;96064.66;;;8.74;67.70
29247;BME280;16272;48.188;9.964;2024-02-28T10:06:15;96063.97;;;8.72;67.90
29247;BME280;16272;48.188;9.964;2024-02-28T10:08:41;96058.41;;;8.44;66.81
29247;BME280;16272;48.188;9.964;2024-02-28T10:11:06;96063.00;;;8.73;67.49
29247;BME280;16272;48.188;9.964;2024-02-28T10:13:31;96063.84;;;7.79;69.91
29247;BME280;16272;48.188;9.964;2024-02-28T10:15:57;96059.34;;;8.74;67.98
29247;BME280;16272;48.188;9.964;2024-02-28T10:18:22;96066.53;;;8.52;67.90
29247;BME280;16272;48.188;9.964;2024-02-28T10:20:47;96065.22;;;8.68;68.07
29247;BME280;16272;48.188;9.964;2024-02-28T10:23:13;96070.03;;;7.89;68.98
29247;BME280;16272;48.188;9.964;2024-02-28T10:25:45;96075.97;;;8.45;68.59
29247;BME280;16272;48.188;9.964;2024-02-28T10:28:11;96075.44;;;8.51;68.48
29247;BME280;16272;48.188;9.964;2024-02-28T10:30:43;96076.91;;;7.60;70.18
29247;BME280;16272;48.188;9.964;2024-02-28T10:33:12;96074.50;;;8.10;69.86
29247;BME280;16272;48.188;9.964;2024-02-28T10:35:42;96076.78;;;8.24;69.81
29247;BME280;16272;48.188;9.964;2024-02-28T10:38:11;96074.91;;;8.57;67.53
29247;BME280;16272;48.188;9.964;2024-02-28T10:40:37;96080.25;;;8.15;68.64
29247;BME280;16272;48.188;9.964;2024-02-28T10:43:03;96081.13;;;8.25;68.55
29247;BME280;16272;48.188;9.964;2024-02-28T10:45:31;96090.56;;;8.18;68.44
29247;BME280;16272;48.188;9.964;2024-02-28T10:47:57;96090.06;;;8.34;68.41
29247;BME280;16272;48.188;9.964;2024-02-28T10:50:22;96088.22;;;8.46;68.13
29247;BME280;16272;48.188;9.964;2024-02-28T10:52:48;96087.91;;;7.97;68.61
29247;BME280;16272;48.188;9.964;2024-02-28T10:55:23;96089.38;;;8.11;69.27
29247;BME280;16272;48.188;9.964;2024-02-28T10:57:56;96090.59;;;7.86;69.36
29247;BME280;16272;48.188;9.964;2024-02-28T11:00:23;96101.16;;;8.18;68.00
29247;BME280;16272;48.188;9.964;2024-02-28T11:02:49;96094.94;;;8.08;68.88
29247;BME280;16272;48.188;9.964;2024-02-28T11:05:14;96100.59;;;8.24;68.44
29247;BME280;16272;48.188;9.964;2024-02-28T11:07:43;96103.25;;;8.24;69.02
29247;BME280;16272;48.188;9.964;2024-02-28T11:10:08;96104.03;;;8.57;66.95
29247;BME280;16272;48.188;9.964;2024-02-28T11:12:35;96099.22;;;8.72;67.40
29247;BME280;16272;48.188;9.964;2024-02-28T11:15:03;96108.25;;;9.00;67.27
29247;BME280;16272;48.188;9.964;2024-02-28T11:17:32;96106.81;;;8.87;66.18
29247;BME280;16272;48.188;9.964;2024-02-28T11:19:58;96103.75;;;8.91;67.58
29247;BME280;16272;48.188;9.964;2024-02-28T11:22:23;96103.53;;;9.04;66.30
29247;BME280;16272;48.188;9.964;2024-02-28T11:24:49;96099.13;;;9.24;66.98
29247;BME280;16272;48.188;9.964;2024-02-28T11:27:15;96098.25;;;9.14;66.25
29247;BME280;16272;48.188;9.964;2024-02-28T11:29:40;96088.56;;;9.53;66.08
29247;BME280;16272;48.188;9.964;2024-02-28T11:32:06;96090.94;;;8.96;66.14
29247;BME280;16272;48.188;9.964;2024-02-28T11:34:33;96079.50;;;9.56;64.74
29247;BME280;16272;48.188;9.964;2024-02-28T11:36:59;96087.31;;;9.87;64.26
29247;BME280;16272;48.188;9.964;2024-02-28T11:39:24;96075.69;;;9.39;64.41
29247;BME280;16272;48.188;9.964;2024-02-28T11:41:50;96076.25;;;9.33;63.32
29247;BME280;16272;48.188;9.964;2024-02-28T11:44:16;96067.63;;;9.60;63.00
29247;BME280;16272;48.188;9.964;2024-02-28T11:46:46;96066.81;;;9.99;63.63
29247;BME280;16272;48.188;9.964;2024-02-28T11:49:12;96068.75;;;9.67;63.68
29247;BME280;16272;48.188;9.964;2024-02-28T11:51:40;96071.53;;;9.95;62.87
29247;BME280;16272;48.188;9.964;2024-02-28T11:54:07;96074.47;;;9.53;nan
29247;BME280;16272;48.188;9.964;2024-02-28T11:56:32;96092.16;;;9.23;63.50
29247;BME280;16272;48.188;9.964;2024-02-28T11:58:58;96086.75;;;8.84;66.14
29247;BME280;16272;48.188;9.964;2024-02-28T12:01:42;96076.53;;;9.49;64.34
29247;BME280;16272;48.188;9.964;2024-02-28T12:04:12;96084.91;;;9.25;63.50
29247;BME280;16272;48.188;9.964;2024-02-28T12:06:38;96081.31;;;9.85;61.16
29247;BME280;16272;48.188;9.964;2024-02-28T12:09:08;96071.91;;;10.20;63.63
29247;BME280;16272;48.188;9.964;2024-02-28T12:11:35;96072.41;;;10.90;61.02
29247;BME280;16272;48.188;9.964;2024-02-28T12:14:05;96069.25;;;10.39;61.02
29247;BME280;16272;48.188;9.964;2024-02-28T12:16:35;96065.88;;;11.12;60.88
29247;BME280;16272;48.188;9.964;2024-02-28T12:19:03;96069.00;;;10.70;58.29
29247;BME280;16272;48.188;9.964;2024-02-28T12:21:28;96060.56;;;10.84;60.66
29247;BME280;16272;48.188;9.964;2024-02-28T12:23:56;96059.03;;;11.55;58.17
29247;BME280;16272;48.188;9.964;2024-02-28T12:26:21;96067.81;;;11.20;60.87
29247;BME280;16272;48.188;9.964;2024-02-28T12:28:47;96075.03;;;9.96;62.68
29247;BME280;16272;48.188;9.964;2024-02-28T12:31:12;96069.72;;;9.86;63.72
29247;BME280;16272;48.188;9.964;2024-02-28T12:33:38;96069.84;;;10.33;63.44
29247;BME280;16272;48.188;9.964;2024-02-28T12:36:04;96062.72;;;10.04;62.27
29247;BME280;16272;48.188;9.964;2024-02-28T12:38:30;96065.81;;;9.90;62.14
29247;BME280;16272;48.188;9.964;2024-02-28T12:40:56;96066.59;;;8.72;64.38
29247;BME280;16272;48.188;9.964;2024-02-28T12:43:21;96065.22;;;8.68;64.60
29247;BME280;16272;48.188;9.964;2024-02-28T12:45:47;96061.19;;;8.73;65.89
29247;BME280;16272;48.188;9.964;2024-02-28T12:48:12;96051.69;;;9.31;63.72
29247;BME280;16272;48.188;9.964;2024-02-28T12:50:37;96048.94;;;9.52;63.13
29247;BME280;16272;48.188;9.964;2024-02-28T12:53:03;96046.09;;;9.24;62.74
29247;BME280;16272;48.188;9.964;2024-02-28T12:55:28;96059.44;;;8.93;65.64
29247;BME280;16272;48.188;9.964;2024-02-28T12:57:54;96060.78;;;8.78;65.35
29247;BME280;16272;48.188;9.964;2024-02-28T13:00:20;96061.53;;;8.59;65.55
29247;BME280;16272;48.188;9.964;2024-02-28T13:02:46;96063.75;;;8.94;65.32